^^
Meteo Knjazevac Station Historical Data
Daily Summary for August 15, 2021 Units:  Metric    English   Both
Daily Weekly Monthly Yearly Custom
  High: Low: Average:
Temperature: 34.4 °C 19 °C 24.4 °C
Dew Point: 24.2 °C 16.7 °C 19.6 °C
Humidity: 89% 54% 76%
Wind Speed: 11.3km/h 0km/h 3.2km/h
Wind Gust: 25.7km/h - -
Wind- - ESE
Pressure: 1016.1 hPa 1013.4 hPa -
Precipitation: 0 mm    
Historical Graphs
 
 
Tabular Data for August 15, 2021
Time Temperature Dew Point Pressure Wind Wind Speed Wind Gust Humidity Rainfall Rate (Hourly) solar Conditions
00:00 23.6 °C 18.7 °C 1014.8 hPa Calm   3.2 km/h 74% 0 mm 0 W/m2
00:10 23.4 °C 18.7 °C 1014.8 hPa Calm   3.2 km/h 75% 0 mm 0 W/m2
00:20 23.2 °C 18.5 °C 1015.1 hPa SSW 1.6 km/h 3.2 km/h 75% 0 mm 0 W/m2
00:30 23 °C 18.3 °C 1015.1 hPa Calm   3.2 km/h 75% 0 mm 0 W/m2
00:40 22.8 °C 18.1 °C 1015.1 hPa Calm   6.4 km/h 75% 0 mm 0 W/m2
00:50 22.7 °C 18.4 °C 1015.1 hPa West 3.2 km/h 4.8 km/h 77% 0 mm 0 W/m2
01:00 22.5 °C 18.4 °C 1015.1 hPa Calm   3.2 km/h 78% 0 mm 0 W/m2
01:10 22.4 °C 18.4 °C 1015.1 hPa NW 1.6 km/h 3.2 km/h 78% 0 mm 0 W/m2
01:20 22.3 °C 18.3 °C 1015.5 hPa SW 1.6 km/h 3.2 km/h 78% 0 mm 0 W/m2
01:30 22.2 °C 18.2 °C 1015.5 hPa NE 1.6 km/h 8 km/h 78% 0 mm 0 W/m2
01:40 22.1 °C 18.1 °C 1015.5 hPa South 1.6 km/h 3.2 km/h 78% 0 mm 0 W/m2
01:50 21.9 °C 18.1 °C 1015.1 hPa WNW 1.6 km/h 3.2 km/h 79% 0 mm 0 W/m2
02:00 21.8 °C 18 °C 1015.5 hPa Calm   4.8 km/h 79% 0 mm 0 W/m2
02:10 21.8 °C 18 °C 1015.5 hPa Calm   3.2 km/h 79% 0 mm 0 W/m2
02:20 21.7 °C 17.9 °C 1015.5 hPa WSW 3.2 km/h 4.8 km/h 79% 0 mm 0 W/m2
02:30 21.5 °C 17.7 °C 1015.5 hPa Calm   3.2 km/h 79% 0 mm 0 W/m2
02:40 21.3 °C 17.7 °C 1015.5 hPa Calm   3.2 km/h 80% 0 mm 0 W/m2
02:50 21.2 °C 17.6 °C 1015.5 hPa Calm   3.2 km/h 80% 0 mm 0 W/m2
03:00 21 °C 17.6 °C 1015.5 hPa Calm   3.2 km/h 81% 0 mm 0 W/m2
03:10 20.8 °C 17.4 °C 1015.5 hPa SW 1.6 km/h 4.8 km/h 81% 0 mm 0 W/m2
03:20 20.7 °C 17.3 °C 1015.5 hPa Calm   4.8 km/h 81% 0 mm 0 W/m2
03:30 20.5 °C 17.5 °C 1015.5 hPa West 1.6 km/h 3.2 km/h 83% 0 mm 0 W/m2
03:40 20.4 °C 17.4 °C 1015.5 hPa Calm   3.2 km/h 83% 0 mm 0 W/m2
03:50 20.1 °C 17.3 °C 1015.5 hPa West 1.6 km/h 4.8 km/h 84% 0 mm 0 W/m2
04:00 20 °C 17.2 °C 1015.5 hPa Calm   3.2 km/h 84% 0 mm 0 W/m2
04:10 20 °C 17.2 °C 1015.5 hPa Calm   3.2 km/h 84% 0 mm 0 W/m2
04:20 19.8 °C 17 °C 1015.8 hPa Calm   1.6 km/h 84% 0 mm 0 W/m2
04:30 19.8 °C 17.2 °C 1015.8 hPa Calm   3.2 km/h 85% 0 mm 0 W/m2
04:40 19.7 °C 17.1 °C 1015.8 hPa Calm   4.8 km/h 85% 0 mm 0 W/m2
04:50 19.5 °C 17.1 °C 1015.8 hPa NW 1.6 km/h 3.2 km/h 86% 0 mm 0 W/m2
05:00 19.4 °C 17 °C 1015.8 hPa NW 3.2 km/h 3.2 km/h 86% 0 mm 0 W/m2
05:10 19.3 °C 16.9 °C 1015.8 hPa West 4.8 km/h 8 km/h 86% 0 mm 6 W/m2
05:20 19.3 °C 16.9 °C 1015.8 hPa NW 1.6 km/h 6.4 km/h 86% 0 mm 11 W/m2
05:30 19.3 °C 16.9 °C 1015.8 hPa NW 1.6 km/h 3.2 km/h 86% 0 mm 20 W/m2
05:40 19.1 °C 16.7 °C 1015.8 hPa WNW 1.6 km/h 3.2 km/h 86% 0 mm 30 W/m2
05:50 19 °C 16.9 °C 1015.8 hPa West 1.6 km/h 4.8 km/h 88% 0 mm 42 W/m2
06:00 19 °C 16.9 °C 1015.8 hPa West 1.6 km/h 4.8 km/h 88% 0 mm 54 W/m2
06:10 19.1 °C 17.1 °C 1015.8 hPa West 1.6 km/h 3.2 km/h 88% 0 mm 73 W/m2
06:20 19.1 °C 17.1 °C 1015.8 hPa Calm   3.2 km/h 88% 0 mm 92 W/m2
06:30 19.1 °C 17.1 °C 1016.1 hPa Calm   3.2 km/h 88% 0 mm 115 W/m2
06:40 19.3 °C 17.3 °C 1015.8 hPa West 1.6 km/h 3.2 km/h 88% 0 mm 138 W/m2
06:50 19.4 °C 17.6 °C 1015.8 hPa WNW 1.6 km/h 3.2 km/h 89% 0 mm 165 W/m2
07:00 19.6 °C 17.6 °C 1015.8 hPa Calm   3.2 km/h 88% 0 mm 192 W/m2
07:10 19.8 °C 17.8 °C 1016.1 hPa Calm   3.2 km/h 88% 0 mm 225 W/m2
07:20 20.1 °C 18.1 °C 1016.1 hPa WSW 1.6 km/h 3.2 km/h 88% 0 mm 256 W/m2
07:30 20.5 °C 18.4 °C 1016.1 hPa WNW 1.6 km/h 3.2 km/h 88% 0 mm 289 W/m2
07:40 20.8 °C 18.7 °C 1016.1 hPa North 4.8 km/h 9.7 km/h 88% 0 mm 319 W/m2
07:50 21.3 °C 19.1 °C 1016.1 hPa NNE 4.8 km/h 9.7 km/h 87% 0 mm 348 W/m2
08:00 21.7 °C 19.3 °C 1016.1 hPa North 4.8 km/h 11.3 km/h 86% 0 mm 383 W/m2
08:10 22.1 °C 19.4 °C 1016.1 hPa NNE 4.8 km/h 11.3 km/h 85% 0 mm 415 W/m2
08:20 22.5 °C 19.8 °C 1016.1 hPa NNE 8 km/h 12.9 km/h 85% 0 mm 448 W/m2
08:30 22.9 °C 20.1 °C 1016.1 hPa NNE 4.8 km/h 12.9 km/h 84% 0 mm 480 W/m2
08:40 23.4 °C 20.3 °C 1016.1 hPa NNE 3.2 km/h 12.9 km/h 83% 0 mm 515 W/m2
08:50 23.8 °C 20.3 °C 1015.8 hPa NNE 1.6 km/h 12.9 km/h 81% 0 mm 542 W/m2
09:00 24.3 °C 20.9 °C 1015.8 hPa NNE 4.8 km/h 9.7 km/h 81% 0 mm 574 W/m2
09:10 25.2 °C 21.3 °C 1015.8 hPa North 4.8 km/h 11.3 km/h 79% 0 mm 598 W/m2
09:20 25.9 °C 21.6 °C 1015.8 hPa NNE 3.2 km/h 16.1 km/h 77% 0 mm 630 W/m2
09:30 26.6 °C 21.5 °C 1015.8 hPa NNE 8 km/h 14.5 km/h 74% 0 mm 663 W/m2
09:40 27.1 °C 21.8 °C 1015.5 hPa NNE 4.8 km/h 12.9 km/h 73% 0 mm 691 W/m2
09:50 27.5 °C 21.6 °C 1015.5 hPa NNE 4.8 km/h 12.9 km/h 70% 0 mm 718 W/m2
10:00 27.9 °C 21.7 °C 1015.5 hPa NNE 3.2 km/h 11.3 km/h 69% 0 mm 746 W/m2
10:10 28.4 °C 21.9 °C 1015.5 hPa NNE 4.8 km/h 11.3 km/h 68% 0 mm 773 W/m2
10:20 28.7 °C 22 °C 1015.5 hPa North 4.8 km/h 9.7 km/h 67% 0 mm 798 W/m2
10:30 29.3 °C 22.3 °C 1015.1 hPa North 4.8 km/h 11.3 km/h 66% 0 mm 815 W/m2
10:40 29.8 °C 22 °C 1015.1 hPa NNE 11.3 km/h 19.3 km/h 63% 0 mm 830 W/m2
10:50 29.9 °C 22.4 °C 1015.1 hPa NNE 8 km/h 11.3 km/h 64% 0 mm 293 W/m2
11:00 30.3 °C 22.4 °C 1014.8 hPa NNE 8 km/h 19.3 km/h 63% 0 mm 814 W/m2
11:10 30.5 °C 22.4 °C 1014.8 hPa North 8 km/h 14.5 km/h 62% 0 mm 840 W/m2
11:20 31.1 °C 22.9 °C 1014.8 hPa North 4.8 km/h 12.9 km/h 62% 0 mm 713 W/m2
11:30 31.4 °C 23.3 °C 1014.8 hPa North 3.2 km/h 12.9 km/h 62% 0 mm 916 W/m2
11:40 31.6 °C 22.9 °C 1014.8 hPa NNE 11.3 km/h 19.3 km/h 60% 0 mm 931 W/m2
11:50 31.8 °C 23.1 °C 1014.4 hPa NNE 9.7 km/h 19.3 km/h 60% 0 mm 936 W/m2
12:00 31.8 °C 22.8 °C 1014.4 hPa NNE 4.8 km/h 14.5 km/h 59% 0 mm 945 W/m2
12:10 32.2 °C 23.4 °C 1014.4 hPa North 4.8 km/h 16.1 km/h 60% 0 mm 949 W/m2
12:20 32.5 °C 23.4 °C 1014.1 hPa North 8 km/h 16.1 km/h 59% 0 mm 956 W/m2
12:30 33 °C 23.6 °C 1014.1 hPa North 4.8 km/h 22.5 km/h 58% 0 mm 959 W/m2
12:40 33.1 °C 23.4 °C 1014.1 hPa NNE 11.3 km/h 17.7 km/h 57% 0 mm 768 W/m2
12:50 33.1 °C 23.7 °C 1014.1 hPa NNE 4.8 km/h 17.7 km/h 58% 0 mm 438 W/m2
13:00 33.6 °C 24.2 °C 1014.1 hPa North 8 km/h 19.3 km/h 58% 0 mm 586 W/m2
13:10 33.7 °C 23.7 °C 1013.8 hPa North 4.8 km/h 20.9 km/h 56% 0 mm 456 W/m2
13:20 33.8 °C 23.5 °C 1013.8 hPa North 9.7 km/h 19.3 km/h 55% 0 mm 946 W/m2
13:30 34.1 °C 23.8 °C 1013.8 hPa North 4.8 km/h 16.1 km/h 55% 0 mm 939 W/m2
13:40 34.2 °C 23.6 °C 1013.8 hPa NNW 9.7 km/h 19.3 km/h 54% 0 mm 923 W/m2
13:50 34.4 °C 23.7 °C 1013.4 hPa North 3.2 km/h 25.7 km/h 54% 0 mm 911 W/m2
Knjazevac, Serbia
Compliments of Weather Underground - 2 mb